Time;durP1;ratioP1;P1;durP2;ratioP2;P2;SDS_P1;SDS_P2;PMS_P1;PMS_P2;Temp;Humidity;BMP_temperature;BMP_pressure;BME280_temperature;BME280_humidity;BME280_pressure;Samples;Min_cycle;Max_cycle;Signal;HPM_P1;HPM_P2
2021/06/26 00:02:21;;;;;;;;;4.75;4.00;;;;;21.13;56.84;100642.34;5057466;28;64258;-78
2021/06/26 00:04:47;;;;;;;;;4.50;3.50;;;;;21.13;56.65;100649.44;5074905;28;45370;-79
2021/06/26 00:07:12;;;;;;;;;5.00;3.00;;;;;21.12;56.87;100640.63;5075177;27;45486;-79
2021/06/26 00:09:38;;;;;;;;;2.00;2.00;;;;;21.12;56.87;100637.13;5073379;28;45364;-79
2021/06/26 00:12:04;;;;;;;;;3.75;3.75;;;;;21.10;56.54;100639.88;5072531;28;45367;-78
2021/06/26 00:14:29;;;;;;;;;3.00;3.00;;;;;21.11;56.66;100648.72;5057736;28;45709;-79
2021/06/26 00:16:54;;;;;;;;;3.75;3.25;;;;;21.13;57.02;100649.44;5072376;28;48146;-78
2021/06/26 00:19:20;;;;;;;;;5.00;4.00;;;;;21.10;56.91;100650.50;5088179;27;57922;-78
2021/06/26 00:21:45;;;;;;;;;3.75;3.75;;;;;21.10;56.51;100647.84;5076684;28;45671;-78
2021/06/26 00:24:11;;;;;;;;;4.00;4.00;;;;;21.12;56.98;100650.41;5076933;28;45577;-78
2021/06/26 00:26:36;;;;;;;;;2.00;2.00;;;;;21.10;56.53;100647.00;5080863;28;45325;-78
2021/06/26 00:29:03;;;;;;;;;4.00;3.75;;;;;21.10;56.69;100647.84;5080151;28;45449;-79
2021/06/26 00:31:28;;;;;;;;;3.00;3.00;;;;;21.09;56.89;100646.16;5077224;28;45310;-78
2021/06/26 00:33:53;;;;;;;;;5.00;5.00;;;;;21.08;56.75;100638.28;5077224;28;45542;-79
2021/06/26 00:36:19;;;;;;;;;2.50;2.25;;;;;21.09;56.72;100647.97;5076999;28;54014;-79
2021/06/26 00:38:44;;;;;;;;;4.00;4.00;;;;;21.08;56.96;100640.94;5076796;28;45424;-79
2021/06/26 00:41:10;;;;;;;;;4.25;4.25;;;;;21.10;56.88;100649.66;5076575;28;45475;-79
2021/06/26 00:43:38;;;;;;;;;3.75;3.75;;;;;21.08;56.62;100655.09;5078241;28;45413;-79
2021/06/26 00:46:04;;;;;;;;;5.25;5.00;;;;;21.09;56.77;100650.63;5076866;28;45433;-78
2021/06/26 00:48:29;;;;;;;;;5.00;4.00;;;;;21.08;56.88;100647.13;5076730;28;59885;-80
2021/06/26 00:50:55;;;;;;;;;6.00;4.50;;;;;21.09;56.92;100643.50;5077849;28;45477;-80
2021/06/26 00:53:20;;;;;;;;;3.50;3.50;;;;;21.08;56.69;100644.47;5078321;28;45334;-81
2021/06/26 00:55:52;;;;;;;;;3.50;3.50;;;;;21.10;56.58;100639.03;5077458;27;56943;-79
2021/06/26 00:58:24;;;;;;;;;5.00;5.00;;;;;21.06;56.77;100635.75;5077542;27;45456;-79
2021/06/26 01:00:50;;;;;;;;;6.25;6.00;;;;;21.07;56.59;100633.94;5077730;27;45385;-79
2021/06/26 01:03:15;;;;;;;;;5.00;5.00;;;;;21.07;56.72;100628.63;5077384;28;45524;-77
2021/06/26 01:05:41;;;;;;;;;9.00;7.00;;;;;21.08;56.29;100617.06;5059543;28;47982;-78
2021/06/26 01:08:06;;;;;;;;;10.50;7.75;;;;;21.06;57.01;100606.53;5079342;28;45467;-78
2021/06/26 01:10:32;;;;;;;;;5.25;5.25;;;;;21.05;56.69;100610.16;5078439;28;45571;-80
2021/06/26 01:12:57;;;;;;;;;9.00;7.75;;;;;21.04;56.82;100616.41;5077628;28;45731;-80
2021/06/26 01:15:23;;;;;;;;;7.75;6.00;;;;;21.02;56.83;100610.31;5075265;28;63187;-78
2021/06/26 01:17:48;;;;;;;;;8.00;6.75;;;;;21.01;56.94;100614.78;5076680;28;51967;-76
2021/06/26 01:20:14;;;;;;;;;7.00;7.00;;;;;20.98;56.78;100599.06;5077155;27;45458;-78
2021/06/26 01:22:44;;;;;;;;;8.50;8.00;;;;;20.97;56.84;100602.69;5075597;28;45559;-79
2021/06/26 01:25:14;;;;;;;;;9.50;9.25;;;;;20.96;56.87;100608.94;5076216;28;46206;-80
2021/06/26 01:27:40;;;;;;;;;6.75;6.75;;;;;20.95;57.03;100609.06;5058331;28;45849;-79
2021/06/26 01:30:06;;;;;;;;;11.75;7.25;;;;;20.95;57.05;100615.22;5059844;28;45659;-78
2021/06/26 01:32:31;;;;;;;;;4.75;4.75;;;;;20.92;56.98;100615.41;5078839;27;45293;-79
2021/06/26 01:34:56;;;;;;;;;8.25;6.50;;;;;20.93;57.12;100608.31;5074831;28;57340;-78
2021/06/26 01:37:22;;;;;;;;;7.00;6.00;;;;;20.91;57.04;100608.41;5077618;28;51296;-78
2021/06/26 01:39:47;;;;;;;;;8.25;6.00;;;;;20.90;56.97;100605.88;5075258;28;45672;-79
2021/06/26 01:42:13;;;;;;;;;6.25;6.25;;;;;20.89;56.99;100604.16;5059424;28;51018;-78
2021/06/26 01:44:38;;;;;;;;;7.75;7.75;;;;;20.87;57.03;100603.41;5074901;28;56404;-78
2021/06/26 01:47:07;;;;;;;;;5.00;5.00;;;;;20.85;57.21;100598.22;5076186;28;56245;-78
2021/06/26 01:49:33;;;;;;;;;9.50;9.50;;;;;20.84;57.11;100600.97;5079579;27;45563;-79
2021/06/26 01:51:58;;;;;;;;;7.75;7.75;;;;;20.83;57.04;100607.25;5093707;27;45344;-78
2021/06/26 01:54:24;;;;;;;;;7.25;6.25;;;;;20.82;57.02;100603.72;5076915;28;46096;-79
2021/06/26 01:56:49;;;;;;;;;6.50;6.00;;;;;20.80;56.98;100597.66;5076428;28;45632;-78
2021/06/26 01:59:15;;;;;;;;;7.00;7.00;;;;;20.80;57.21;100599.44;5077072;28;45386;-79
2021/06/26 02:01:40;;;;;;;;;8.25;8.00;;;;;20.76;57.14;100596.16;5075997;28;49232;-79
2021/06/26 02:04:05;;;;;;;;;7.25;6.50;;;;;20.75;56.96;100591.81;5058984;28;60891;-79
2021/06/26 02:06:31;;;;;;;;;6.75;6.75;;;;;20.75;57.33;100587.34;5075081;28;45747;-79
2021/06/26 02:08:56;;;;;;;;;5.00;5.00;;;;;20.75;57.18;100594.47;5075888;28;52033;-78
2021/06/26 02:11:22;;;;;;;;;8.75;7.50;;;;;20.72;57.37;100584.06;5075206;28;45546;-79
2021/06/26 02:13:47;;;;;;;;;7.00;5.50;;;;;20.71;57.23;100598.28;5076582;28;62484;-80
2021/06/26 02:16:13;;;;;;;;;4.25;4.25;;;;;20.70;57.38;100599.22;5073745;28;45448;-79
2021/06/26 02:18:38;;;;;;;;;3.00;3.00;;;;;20.68;57.34;100595.81;5077421;28;45415;-80
2021/06/26 02:21:05;;;;;;;;;3.00;3.00;;;;;20.67;57.55;100592.31;5076284;28;49333;-79
2021/06/26 02:23:31;;;;;;;;;5.00;4.25;;;;;20.64;57.28;100584.56;5078030;27;45425;-81
2021/06/26 02:25:56;;;;;;;;;5.25;5.25;;;;;20.65;57.03;100598.69;5058611;28;45430;-80
2021/06/26 02:28:22;;;;;;;;;5.00;5.00;;;;;20.63;57.40;100597.94;5076915;28;45474;-80
2021/06/26 02:30:47;;;;;;;;;7.75;5.25;;;;;20.62;57.06;100601.56;5077325;28;45338;-80
2021/06/26 02:33:12;;;;;;;;;4.50;4.50;;;;;20.62;57.33;100602.41;5076456;28;45546;-79
2021/06/26 02:35:38;;;;;;;;;6.25;5.25;;;;;20.61;57.45;100602.50;5059419;28;45368;-80
2021/06/26 02:38:03;;;;;;;;;5.75;5.25;;;;;20.61;57.50;100597.19;5077342;28;51795;-80
2021/06/26 02:40:29;;;;;;;;;5.00;3.75;;;;;20.58;57.39;100584.97;5076837;27;45603;-79
2021/06/26 02:42:54;;;;;;;;;5.25;5.00;;;;;20.58;57.56;100584.09;5075588;28;65294;-79
2021/06/26 02:45:19;;;;;;;;;5.75;5.75;;;;;20.58;57.58;100592.06;5076409;28;45412;-78
2021/06/26 02:47:45;;;;;;;;;5.75;5.00;;;;;20.57;57.78;100593.88;5057453;28;52461;-78
2021/06/26 02:50:11;;;;;;;;;5.25;5.00;;;;;20.55;57.72;100590.47;5075583;28;48690;-78
2021/06/26 02:52:36;;;;;;;;;6.25;5.00;;;;;20.56;57.88;100588.66;5075326;27;46433;-79
2021/06/26 02:55:03;;;;;;;;;5.75;4.75;;;;;20.56;57.75;100591.31;5078154;28;45250;-79
2021/06/26 02:57:28;;;;;;;;;6.00;5.00;;;;;20.53;57.40;100586.22;5076089;28;45387;-79
2021/06/26 02:59:53;;;;;;;;;4.00;4.00;;;;;20.53;57.69;100583.56;5074500;28;45396;-79
2021/06/26 03:02:19;;;;;;;;;5.00;4.25;;;;;20.53;57.51;100586.22;5075310;28;45402;-79
2021/06/26 03:04:44;;;;;;;;;8.00;6.00;;;;;20.53;57.67;100586.22;5076063;28;45329;-78
2021/06/26 03:07:10;;;;;;;;;7.50;4.75;;;;;20.51;57.71;100585.47;5074098;28;45351;-78
2021/06/26 03:09:36;;;;;;;;;3.75;3.75;;;;;20.50;57.66;100584.63;5075890;27;46045;-79
2021/06/26 03:12:02;;;;;;;;;4.25;4.25;;;;;20.52;57.58;100584.53;5077862;28;45592;-79
2021/06/26 03:14:27;;;;;;;;;4.25;4.25;;;;;20.51;57.68;100577.50;5075415;28;46382;-80
2021/06/26 03:16:52;;;;;;;;;6.75;5.75;;;;;20.51;57.47;100577.50;5076636;28;45448;-77
2021/06/26 03:19:18;;;;;;;;;6.00;6.00;;;;;20.50;57.77;100583.78;5073319;28;54180;-80
2021/06/26 03:21:43;;;;;;;;;6.75;6.00;;;;;20.50;57.85;100583.78;5074221;28;56036;-77
2021/06/26 03:24:09;;;;;;;;;4.75;4.75;;;;;20.50;57.84;100586.44;5074733;28;45381;-78
2021/06/26 03:26:34;;;;;;;;;7.75;6.50;;;;;20.48;57.73;100591.84;5072782;27;45496;-77
2021/06/26 03:29:01;;;;;;;;;7.50;6.25;;;;;20.49;58.00;100587.38;5076439;28;45476;-78
2021/06/26 03:31:26;;;;;;;;;6.00;6.00;;;;;20.48;58.07;100586.53;5073511;28;47061;-77
2021/06/26 03:33:52;;;;;;;;;7.75;5.75;;;;;20.48;57.90;100585.69;5074514;28;45377;-78
2021/06/26 03:36:17;;;;;;;;;6.25;5.25;;;;;20.47;57.96;100582.19;5056734;28;52731;-78
2021/06/26 03:38:43;;;;;;;;;7.00;7.00;;;;;20.47;58.04;100584.84;5076084;28;45615;-79
2021/06/26 03:41:08;;;;;;;;;7.25;7.25;;;;;20.44;58.10;100579.72;5073665;28;45383;-79
2021/06/26 03:43:34;;;;;;;;;6.00;6.00;;;;;20.44;58.36;100579.72;5053829;28;45249;-79
2021/06/26 03:45:59;;;;;;;;;6.00;5.25;;;;;20.45;58.00;100584.09;5054334;28;45184;-79
2021/06/26 03:48:25;;;;;;;;;7.75;6.25;;;;;20.43;58.19;100580.69;5055046;28;45589;-80
2021/06/26 03:50:51;;;;;;;;;8.75;7.25;;;;;20.44;58.15;100580.59;5054177;28;45746;-77
2021/06/26 03:53:16;;;;;;;;;9.75;7.25;;;;;20.43;57.97;100583.34;5061820;28;45542;-78
2021/06/26 03:55:51;;;;;;;;;8.00;8.00;;;;;20.42;57.75;100585.13;5090890;27;45331;-79
2021/06/26 03:58:22;;;;;;;;;8.25;8.25;;;;;20.43;57.98;100586.00;5073340;28;45631;-78
2021/06/26 04:00:47;;;;;;;;;8.50;8.50;;;;;20.42;57.82;100584.28;5073296;28;45605;-80
2021/06/26 04:03:13;;;;;;;;;14.00;9.50;;;;;20.43;58.10;100586.84;5075147;28;45366;-78
2021/06/26 04:05:38;;;;;;;;;11.25;8.50;;;;;20.42;58.36;100576.34;5075223;28;45412;-79
2021/06/26 04:08:04;;;;;;;;;9.00;8.25;;;;;20.42;58.21;100586.94;5074870;28;45345;-79
2021/06/26 04:10:29;;;;;;;;;8.50;8.25;;;;;20.41;58.31;100580.78;5073329;28;46834;-78
2021/06/26 04:12:55;;;;;;;;;8.50;7.75;;;;;20.41;58.34;100582.59;5070699;28;58973;-81
2021/06/26 04:15:20;;;;;;;;;7.75;7.00;;;;;20.42;58.49;100584.28;5055230;28;58494;-79
2021/06/26 04:17:46;;;;;;;;;6.50;5.75;;;;;20.42;58.54;100586.94;5054743;28;45639;-79
2021/06/26 04:20:12;;;;;;;;;8.75;8.75;;;;;20.40;58.64;100584.38;5075157;28;51052;-79
2021/06/26 04:22:37;;;;;;;;;10.25;9.00;;;;;20.39;58.23;100595.91;5074799;27;45920;-79
2021/06/26 04:25:04;;;;;;;;;9.25;8.25;;;;;20.40;58.18;100602.06;5074599;28;45531;-79
2021/06/26 04:27:29;;;;;;;;;6.75;6.75;;;;;20.39;58.77;100598.56;5073539;28;45566;-79
2021/06/26 04:29:55;;;;;;;;;9.75;8.75;;;;;20.39;58.52;100597.72;5072595;28;48627;-80
2021/06/26 04:32:21;;;;;;;;;10.75;8.50;;;;;20.39;58.54;100597.72;5074388;28;45497;-79
2021/06/26 04:34:47;;;;;;;;;6.50;6.00;;;;;20.38;59.02;100596.00;5075377;27;45388;-80
2021/06/26 04:37:12;;;;;;;;;8.75;8.50;;;;;20.37;58.23;100594.28;5075658;28;45612;-80
2021/06/26 04:39:37;;;;;;;;;10.75;9.50;;;;;20.36;58.51;100592.59;5073789;28;46064;-81
2021/06/26 04:42:03;;;;;;;;;8.00;8.00;;;;;20.36;58.68;100601.41;5071683;28;46929;-80
2021/06/26 04:44:28;;;;;;;;;7.50;7.25;;;;;20.32;60.88;100597.25;5074264;28;45662;-73
2021/06/26 04:46:54;;;;;;;;;7.50;7.25;;;;;19.90;61.62;100589.41;5073620;27;45543;-74
2021/06/26 04:49:20;;;;;;;;;6.50;6.50;;;;;19.51;63.06;100594.41;5070549;28;46944;-73
2021/06/26 04:51:45;;;;;;;;;9.50;7.50;;;;;19.25;63.76;100595.16;5073188;28;45365;-71
2021/06/26 04:54:10;;;;;;;;;9.00;7.50;;;;;19.02;64.63;100595.69;5074036;27;45485;-71
2021/06/26 04:56:36;;;;;;;;;9.75;7.50;;;;;18.83;65.72;100595.91;5073168;28;45464;-80
2021/06/26 04:59:01;;;;;;;;;9.75;9.75;;;;;18.72;66.17;100601.00;5078675;27;62154;-79
2021/06/26 05:01:27;;;;;;;;;11.00;10.00;;;;;18.59;66.53;100601.66;5096666;27;45459;-72
2021/06/26 05:03:52;;;;;;;;;8.50;8.25;;;;;18.52;67.10;100597.66;5097715;27;45476;-74
2021/06/26 05:06:17;;;;;;;;;12.00;10.75;;;;;18.49;67.26;100597.00;5098057;27;45434;-74
2021/06/26 05:08:43;;;;;;;;;8.00;8.00;;;;;18.44;67.46;100597.25;5079536;27;45448;-74
2021/06/26 05:11:08;;;;;;;;;11.00;8.25;;;;;18.37;68.03;100601.19;5076888;28;45838;-75
2021/06/26 05:13:34;;;;;;;;;10.50;10.50;;;;;18.33;67.97;100599.66;5079245;28;45444;-74
2021/06/26 05:15:59;;;;;;;;;10.00;10.00;;;;;18.31;68.00;100597.09;5077564;28;45380;-73
2021/06/26 05:18:27;;;;;;;;;11.25;11.25;;;;;18.29;68.11;100592.84;5094250;27;47044;-73
2021/06/26 05:20:54;;;;;;;;;8.00;7.00;;;;;18.27;68.18;100603.50;5076176;27;45751;-73
2021/06/26 05:23:20;;;;;;;;;9.75;8.50;;;;;18.23;68.36;100599.31;5075507;28;45461;-74
2021/06/26 05:25:45;;;;;;;;;9.00;8.75;;;;;18.20;68.20;100596.81;5092474;27;45431;-73
2021/06/26 05:28:11;;;;;;;;;9.75;7.50;;;;;18.20;68.54;100602.13;5075996;28;46625;-73
2021/06/26 05:30:36;;;;;;;;;11.00;10.00;;;;;18.21;68.53;100600.31;5093094;27;45918;-75
2021/06/26 05:33:02;;;;;;;;;11.00;8.50;;;;;18.18;68.97;100611.94;5078940;27;45445;-70
2021/06/26 05:35:28;;;;;;;;;9.50;9.50;;;;;18.16;68.90;100607.66;5039526;28;45488;-74
2021/06/26 05:37:53;;;;;;;;;8.50;8.50;;;;;18.11;68.83;100604.44;5067416;27;60788;-79
2021/06/26 05:40:18;;;;;;;;;10.00;7.75;;;;;18.08;69.12;100605.47;5077932;27;45349;-73
2021/06/26 05:42:44;;;;;;;;;8.25;8.25;;;;;18.04;69.24;100603.94;5072292;28;51996;-72
2021/06/26 05:45:09;;;;;;;;;10.00;9.25;;;;;18.02;69.32;100611.09;5058909;28;45410;-74
2021/06/26 05:47:35;;;;;;;;;10.00;9.00;;;;;17.98;69.39;100615.66;5076993;27;45492;-72
2021/06/26 05:50:00;;;;;;;;;10.00;9.00;;;;;17.97;69.94;100615.75;5074371;28;60612;-72
2021/06/26 05:52:25;;;;;;;;;11.00;8.50;;;;;17.96;69.96;100622.81;5075497;28;45956;-72
2021/06/26 05:54:51;;;;;;;;;9.50;9.00;;;;;17.97;70.01;100621.03;5074822;27;45561;-73
2021/06/26 05:57:16;;;;;;;;;11.00;10.00;;;;;17.97;70.01;100621.88;5074973;27;45348;-71
2021/06/26 05:59:42;;;;;;;;;10.50;9.25;;;;;17.97;69.99;100618.41;5074259;27;45368;-76
2021/06/26 06:02:16;;;;;;;;;9.00;7.25;;;;;17.98;69.97;100620.09;5056049;27;45393;-74
2021/06/26 06:04:42;;;;;;;;;9.25;9.25;;;;;17.98;70.07;100614.81;5070158;28;45616;-73
2021/06/26 06:07:09;;;;;;;;;7.25;7.25;;;;;17.97;69.86;100623.69;5076257;27;45846;-72
2021/06/26 06:09:34;;;;;;;;;15.00;11.00;;;;;17.99;70.57;100627.09;5054113;28;45544;-72
2021/06/26 06:11:59;;;;;;;;;8.75;7.25;;;;;17.99;70.00;100622.66;5054914;28;45997;-73
2021/06/26 06:14:25;;;;;;;;;8.25;8.25;;;;;18.02;70.68;100627.81;5074582;27;45423;-71
2021/06/26 06:16:50;;;;;;;;;13.00;13.00;;;;;17.98;70.01;100628.88;5055921;28;67113;-71
2021/06/26 06:19:16;;;;;;;;;11.25;10.00;;;;;17.98;69.79;100635.97;5074639;28;45459;-71
2021/06/26 06:21:41;;;;;;;;;9.25;8.50;;;;;17.98;70.09;100626.25;5057122;28;60876;-72
2021/06/26 06:24:07;;;;;;;;;8.75;7.25;;;;;18.00;69.99;100623.50;5056703;28;45557;-73
2021/06/26 06:26:32;;;;;;;;;9.00;9.00;;;;;18.01;69.96;100618.16;5073656;28;46107;-73
2021/06/26 06:28:58;;;;;;;;;8.25;7.50;;;;;18.00;70.06;100626.16;5075700;28;45460;-74
2021/06/26 06:31:23;;;;;;;;;9.50;7.25;;;;;17.99;70.01;100632.38;5074986;28;45478;-76
2021/06/26 06:33:49;;;;;;;;;8.25;8.25;;;;;17.98;69.89;100631.53;5069598;27;46107;-71
2021/06/26 06:36:14;;;;;;;;;8.25;6.50;;;;;18.01;70.16;100635.81;5074529;28;45577;-73
2021/06/26 06:38:40;;;;;;;;;10.25;6.50;;;;;18.05;70.21;100633.84;5068141;27;48207;-74
2021/06/26 06:41:05;;;;;;;;;11.50;9.50;;;;;18.12;70.14;100630.78;5070798;28;48991;-73
2021/06/26 06:43:30;;;;;;;;;10.75;10.75;;;;;18.22;69.88;100634.63;5055732;28;45393;-72
2021/06/26 06:45:57;;;;;;;;;12.25;9.75;;;;;18.28;70.17;100620.22;5073213;28;45475;-72
2021/06/26 06:48:22;;;;;;;;;8.25;8.25;;;;;18.29;69.75;100614.00;5057403;28;45492;-72
2021/06/26 06:50:47;;;;;;;;;10.25;9.75;;;;;18.29;69.95;100611.34;5051754;28;45553;-72
2021/06/26 06:53:13;;;;;;;;;8.25;7.25;;;;;18.22;70.40;100616.13;5064253;28;45452;-72
2021/06/26 06:55:38;;;;;;;;;9.00;9.00;;;;;18.14;70.21;100617.47;5075564;27;45891;-71
2021/06/26 06:58:04;;;;;;;;;9.00;7.75;;;;;18.07;70.18;100624.06;5054225;28;45433;-72
2021/06/26 07:00:29;;;;;;;;;7.75;7.00;;;;;18.02;70.73;100629.59;5054341;28;45385;-73
2021/06/26 07:02:55;;;;;;;;;14.50;11.50;;;;;18.00;70.88;100629.69;5054575;28;45430;-73
2021/06/26 07:05:21;;;;;;;;;9.25;7.50;;;;;18.01;70.64;100628.75;5043483;28;46978;-73
2021/06/26 07:07:47;;;;;;;;;7.75;7.75;;;;;17.99;70.62;100635.88;5054628;28;57988;-73
2021/06/26 07:10:12;;;;;;;;;10.25;10.25;;;;;18.00;70.71;100637.59;5075907;28;45449;-72
2021/06/26 07:12:38;;;;;;;;;10.50;9.50;;;;;18.04;70.93;100632.16;5056978;28;45474;-73
2021/06/26 07:15:04;;;;;;;;;8.50;5.50;;;;;18.08;70.69;100641.63;5055437;28;45868;-73
2021/06/26 07:17:30;;;;;;;;;10.00;10.00;;;;;18.12;70.63;100637.84;5073835;28;45455;-74
2021/06/26 07:19:55;;;;;;;;;11.50;10.50;;;;;18.19;70.43;100640.06;5073608;27;45507;-72
2021/06/26 07:22:21;;;;;;;;;7.00;6.00;;;;;18.25;70.20;100638.91;5072566;28;45625;-72
2021/06/26 07:24:46;;;;;;;;;12.00;10.25;;;;;18.29;70.37;100643.06;5073052;28;45680;-73
2021/06/26 07:27:12;;;;;;;;;9.25;6.50;;;;;18.32;69.91;100638.47;5057059;28;50561;-73
2021/06/26 07:29:37;;;;;;;;;11.50;10.00;;;;;18.36;69.94;100647.06;5056979;28;45452;-74
2021/06/26 07:32:03;;;;;;;;;8.25;7.00;;;;;18.39;69.56;100648.69;5075306;28;45540;-72
2021/06/26 07:34:28;;;;;;;;;11.00;11.00;;;;;18.40;69.87;100651.25;5074379;28;46467;-73
2021/06/26 07:36:54;;;;;;;;;11.00;11.00;;;;;18.44;69.78;100646.66;5073727;28;57038;-72
2021/06/26 07:39:19;;;;;;;;;8.75;8.75;;;;;18.48;69.84;100648.19;5074196;28;45431;-78
2021/06/26 07:41:44;;;;;;;;;8.00;8.00;;;;;18.51;69.47;100640.91;5077791;27;45564;-70
2021/06/26 07:44:10;;;;;;;;;13.25;10.75;;;;;18.54;69.93;100645.19;5064516;28;62199;-70
2021/06/26 07:46:36;;;;;;;;;8.00;7.25;;;;;18.55;69.72;100650.38;5066382;28;45563;-70
2021/06/26 07:49:01;;;;;;;;;9.00;8.50;;;;;18.59;69.91;100645.78;5064806;28;45443;-71
2021/06/26 07:51:26;;;;;;;;;11.00;11.00;;;;;18.58;69.99;100644.91;5071314;28;45582;-73
2021/06/26 07:53:52;;;;;;;;;10.75;10.75;;;;;18.60;69.60;100648.31;5062585;28;47949;-72
2021/06/26 07:56:17;;;;;;;;;9.50;9.50;;;;;18.62;69.25;100649.13;5079599;27;45539;-71
2021/06/26 07:58:43;;;;;;;;;10.25;9.00;;;;;18.65;69.55;100647.22;5068344;28;51244;-71
2021/06/26 08:01:08;;;;;;;;;8.75;8.75;;;;;18.66;69.37;100643.69;5068340;28;45591;-73
2021/06/26 08:03:34;;;;;;;;;9.75;8.50;;;;;18.68;69.33;100633.84;5071071;28;46506;-73
2021/06/26 08:05:59;;;;;;;;;8.75;8.75;;;;;18.71;69.30;100633.69;5070984;28;46588;-79
2021/06/26 08:08:25;;;;;;;;;8.75;8.75;;;;;18.70;68.90;100643.41;5084998;27;55624;-70
2021/06/26 08:10:50;;;;;;;;;7.00;7.00;;;;;18.71;68.97;100637.19;5062308;28;45604;-72
2021/06/26 08:13:16;;;;;;;;;8.00;6.50;;;;;18.74;69.37;100628.22;5071404;28;47300;-70
2021/06/26 08:15:42;;;;;;;;;8.75;8.75;;;;;18.78;69.10;100624.44;5073050;28;45395;-71
2021/06/26 08:18:08;;;;;;;;;9.50;9.00;;;;;18.82;69.00;100624.16;5056842;28;45399;-70
2021/06/26 08:20:34;;;;;;;;;7.50;7.50;;;;;18.88;69.13;100625.63;5055624;28;45561;-74
2021/06/26 08:22:59;;;;;;;;;8.50;8.50;;;;;18.89;68.59;100617.59;5059593;28;45473;-70
2021/06/26 08:25:25;;;;;;;;;12.00;10.00;;;;;18.91;68.86;100622.78;5057047;28;45520;-71
2021/06/26 08:27:50;;;;;;;;;9.25;8.25;;;;;18.91;68.88;100622.78;5061839;28;48688;-75
2021/06/26 08:30:17;;;;;;;;;9.75;9.75;;;;;18.91;68.78;100614.84;5066928;28;45759;-73
2021/06/26 08:32:43;;;;;;;;;11.00;11.00;;;;;18.92;68.98;100613.91;5072866;28;46598;-74
2021/06/26 08:35:10;;;;;;;;;12.25;10.50;;;;;18.98;68.77;100621.47;5086132;27;45530;-73
2021/06/26 08:37:40;;;;;;;;;7.50;6.75;;;;;19.05;68.76;100621.97;5078730;28;45548;-72
2021/06/26 08:40:06;;;;;;;;;12.75;10.25;;;;;19.09;68.30;100629.66;5079091;27;45417;-74
2021/06/26 08:42:32;;;;;;;;;10.50;10.00;;;;;19.11;68.05;100617.19;5044325;28;47363;-74
2021/06/26 08:45:00;;;;;;;;;9.25;8.50;;;;;19.17;68.33;100631.84;5074694;28;45596;-76
2021/06/26 08:47:26;;;;;;;;;8.00;8.00;;;;;19.15;68.42;100628.44;5060122;28;45753;-74
2021/06/26 08:49:52;;;;;;;;;9.75;9.25;;;;;19.13;68.36;100630.31;5076679;28;45637;-74
2021/06/26 08:52:18;;;;;;;;;9.50;9.50;;;;;19.12;68.51;100634.75;5071320;28;45582;-74
2021/06/26 08:54:43;;;;;;;;;11.00;10.25;;;;;19.08;68.38;100638.50;5072467;28;45410;-74
2021/06/26 08:57:09;;;;;;;;;12.00;10.25;;;;;19.07;68.70;100643.91;5053926;28;46013;-75
2021/06/26 08:59:34;;;;;;;;;9.25;9.25;;;;;19.07;68.84;100644.75;5066235;28;45402;-75
2021/06/26 09:02:01;;;;;;;;;9.50;8.75;;;;;19.07;68.36;100638.59;5067643;28;45527;-75
2021/06/26 09:04:26;;;;;;;;;9.75;9.25;;;;;19.07;68.41;100628.88;5071661;28;45504;-74
2021/06/26 09:06:57;;;;;;;;;13.75;11.25;;;;;19.15;68.00;100629.28;5068244;28;54344;-73
2021/06/26 09:09:35;;;;;;;;;14.75;13.25;;;;;19.30;67.74;100624.00;5084179;27;45418;-74
2021/06/26 09:12:05;;;;;;;;;12.00;12.00;;;;;19.46;67.44;100625.63;5065607;27;45622;-74
2021/06/26 09:14:34;;;;;;;;;12.00;9.50;;;;;19.60;66.50;100624.81;5083535;27;45531;-70
2021/06/26 09:17:00;;;;;;;;;12.25;12.00;;;;;19.69;66.28;100626.88;5072535;28;45559;-70
2021/06/26 09:19:26;;;;;;;;;15.75;12.00;;;;;19.80;66.11;100623.59;5067974;28;45924;-72
2021/06/26 09:22:00;;;;;;;;;11.00;11.00;;;;;19.95;66.27;100624.41;5073236;28;45998;-70
2021/06/26 09:24:25;;;;;;;;;15.00;11.25;;;;;20.10;65.84;100619.00;5070907;27;45469;-70
2021/06/26 09:26:56;;;;;;;;;9.50;8.75;;;;;20.25;65.44;100619.81;5072428;28;45630;-71
2021/06/26 09:29:21;;;;;;;;;11.00;10.25;;;;;20.40;64.46;100610.91;5073565;28;45499;-71
2021/06/26 09:31:54;;;;;;;;;10.25;10.25;;;;;20.56;63.95;100623.16;5073061;28;45748;-71
2021/06/26 09:34:23;;;;;;;;;14.00;12.75;;;;;20.68;62.71;100614.41;5073235;27;45483;-70
2021/06/26 09:37:09;;;;;;;;;15.75;11.00;;;;;20.83;62.25;100612.53;5073292;28;45330;-69
2021/06/26 09:39:35;;;;;;;;;12.25;11.00;;;;;20.97;61.78;100613.31;5068057;28;45428;-70
2021/06/26 09:42:02;;;;;;;;;12.50;11.00;;;;;21.18;60.89;100611.00;5074063;28;46538;-71
2021/06/26 09:44:27;;;;;;;;;9.75;9.00;;;;;21.52;60.86;100617.53;5085921;27;45555;-71
2021/06/26 09:46:53;;;;;;;;;9.25;8.75;;;;;21.91;60.40;100602.38;5068714;27;45382;-73
2021/06/26 09:49:28;;;;;;;;;9.00;9.00;;;;;22.34;59.28;100607.25;5068549;28;45477;-72
2021/06/26 09:52:02;;;;;;;;;13.00;12.00;;;;;22.71;57.52;100605.38;5066147;27;46844;-72
2021/06/26 09:54:28;;;;;;;;;9.75;9.00;;;;;22.86;56.85;100605.13;5066178;28;45449;-70
2021/06/26 09:56:54;;;;;;;;;9.75;8.00;;;;;22.92;57.02;100619.78;5073746;27;45440;-71
2021/06/26 09:59:31;;;;;;;;;11.50;11.50;;;;;22.96;56.28;100623.06;5065317;27;45422;-72
2021/06/26 10:01:57;;;;;;;;;12.00;10.25;;;;;22.93;55.77;100631.28;5069452;28;46267;-75
2021/06/26 10:04:23;;;;;;;;;12.25;11.25;;;;;22.88;56.32;100634.31;5061929;28;45796;-73
2021/06/26 10:06:49;;;;;;;;;12.25;10.75;;;;;22.81;55.98;100628.59;5065583;28;45490;-76
2021/06/26 10:09:14;;;;;;;;;11.50;11.25;;;;;22.73;56.21;100622.09;5045681;28;45661;-72
2021/06/26 10:11:40;;;;;;;;;15.50;11.25;;;;;22.69;56.25;100629.47;5076692;27;45523;-72
2021/06/26 10:14:07;;;;;;;;;15.50;12.50;;;;;22.67;56.83;100633.22;5070603;28;45469;-73
2021/06/26 10:16:32;;;;;;;;;11.25;9.50;;;;;22.62;56.30;100630.91;5065803;27;45449;-73
2021/06/26 10:19:05;;;;;;;;;11.50;11.50;;;;;22.59;56.01;100635.59;5060518;28;45351;-72
2021/06/26 10:21:32;;;;;;;;;13.75;12.75;;;;;22.54;56.01;100636.78;5067367;28;45413;-76
2021/06/26 10:23:58;;;;;;;;;15.00;14.00;;;;;22.48;55.59;100637.22;5074326;27;45408;-75
2021/06/26 10:26:24;;;;;;;;;13.75;13.00;;;;;22.46;55.90;100631.19;5061809;28;45287;-76
2021/06/26 10:28:50;;;;;;;;;15.75;13.75;;;;;22.45;56.37;100631.28;5076180;28;45471;-75
2021/06/26 10:31:16;;;;;;;;;15.00;13.75;;;;;22.47;55.90;100624.88;5076480;28;45572;-73
2021/06/26 10:33:44;;;;;;;;;14.25;14.25;;;;;22.49;55.94;100625.63;5058747;28;45683;-74
2021/06/26 10:36:09;;;;;;;;;14.25;14.25;;;;;22.50;55.45;100629.13;5092799;27;45329;-72
2021/06/26 10:38:42;;;;;;;;;16.00;15.00;;;;;22.52;55.51;100630.72;5072928;28;45969;-74
2021/06/26 10:41:19;;;;;;;;;14.00;12.75;;;;;22.62;55.35;100619.41;5063990;28;45469;-72
2021/06/26 10:43:54;;;;;;;;;15.00;13.75;;;;;22.77;55.35;100619.13;5057765;28;45472;-74
2021/06/26 10:46:20;;;;;;;;;10.25;10.25;;;;;22.81;54.89;100623.28;5072778;28;45327;-74
2021/06/26 10:49:03;;;;;;;;;14.50;12.75;;;;;22.74;54.26;100619.31;5074403;28;45329;-74
2021/06/26 10:51:42;;;;;;;;;13.50;11.25;;;;;22.61;54.69;100623.88;5074266;27;46438;-74
2021/06/26 10:54:14;;;;;;;;;15.00;14.50;;;;;22.52;55.20;100619.22;5083378;27;45566;-74
2021/06/26 10:56:40;;;;;;;;;17.00;15.00;;;;;22.52;54.84;100620.06;5091111;27;45548;-74
2021/06/26 10:59:13;;;;;;;;;16.75;13.00;;;;;22.48;54.48;100617.75;5077525;27;45469;-73
2021/06/26 11:01:39;;;;;;;;;15.25;15.25;;;;;22.44;55.25;100617.13;5090884;27;45773;-72
2021/06/26 11:04:08;;;;;;;;;12.50;10.25;;;;;22.45;54.56;100616.16;5056531;28;46034;-72
2021/06/26 11:06:34;;;;;;;;;11.50;10.75;;;;;22.38;54.85;100612.28;5075047;28;45502;-72
2021/06/26 11:09:07;;;;;;;;;15.50;13.25;;;;;22.36;54.36;100610.69;5065640;28;45645;-72
2021/06/26 11:11:40;;;;;;;;;13.00;13.00;;;;;22.35;54.65;100616.97;5074022;28;47852;-72
2021/06/26 11:14:06;;;;;;;;;15.50;14.00;;;;;22.35;54.68;100620.47;5075370;27;45442;-72
2021/06/26 11:16:32;;;;;;;;;14.00;14.00;;;;;22.36;54.78;100614.19;5074322;27;45738;-73